createdAt,value
2018-08-13T00:00:11.461Z,18.40
2018-08-13T00:05:14.708Z,18.40
2018-08-13T00:10:17.980Z,18.30
2018-08-13T00:15:21.304Z,18.30
2018-08-13T00:20:24.571Z,18.20
2018-08-13T00:25:27.917Z,18.20
2018-08-13T00:35:34.427Z,18.10
2018-08-13T00:40:37.763Z,18.00
2018-08-13T00:45:41.033Z,18.00
2018-08-13T00:50:44.314Z,18.00
2018-08-13T00:55:47.591Z,17.80
2018-08-13T01:00:50.879Z,17.80
2018-08-13T01:05:54.160Z,17.80
2018-08-13T01:10:57.423Z,17.70
2018-08-13T01:16:00.673Z,17.70
2018-08-13T01:21:03.969Z,17.60
2018-08-13T01:26:07.232Z,17.50
2018-08-13T01:31:10.488Z,17.30
2018-08-13T01:36:13.732Z,17.10
2018-08-13T01:41:17.048Z,17.20
2018-08-13T01:46:20.340Z,17.20
2018-08-13T01:51:23.583Z,17.20
2018-08-13T01:56:26.849Z,17.00
2018-08-13T02:01:30.278Z,16.90
2018-08-13T02:06:33.492Z,16.80
2018-08-13T02:11:36.805Z,16.60
2018-08-13T02:16:40.081Z,16.50
2018-08-13T02:21:43.372Z,16.60
2018-08-13T02:26:46.659Z,16.50
2018-08-13T02:31:50.201Z,16.60
2018-08-13T02:36:53.527Z,16.60
2018-08-13T02:46:59.769Z,16.40
2018-08-13T02:52:03.066Z,16.40
2018-08-13T02:57:06.703Z,16.40
2018-08-13T03:02:09.975Z,16.40
2018-08-13T03:07:13.247Z,16.40
2018-08-13T03:12:16.510Z,16.40
2018-08-13T03:17:28.124Z,16.40
2018-08-13T03:22:31.980Z,16.50
2018-08-13T03:27:35.271Z,16.40
2018-08-13T03:32:38.735Z,16.30
2018-08-13T03:37:42.002Z,16.20
2018-08-13T03:42:45.266Z,16.10
2018-08-13T03:47:48.524Z,16.10
2018-08-13T03:52:51.795Z,16.10
2018-08-13T03:57:55.088Z,16.00
2018-08-13T04:02:58.369Z,16.00
2018-08-13T04:08:01.779Z,16.00
2018-08-13T04:13:05.142Z,16.10
2018-08-13T04:18:08.870Z,16.10
2018-08-13T04:23:12.119Z,16.10
2018-08-13T04:28:15.420Z,16.10
2018-08-13T04:33:18.686Z,16.00
2018-08-13T04:38:21.970Z,16.10
2018-08-13T04:43:25.248Z,16.30
2018-08-13T04:48:28.506Z,16.20
2018-08-13T04:53:31.773Z,16.50
2018-08-13T04:58:35.024Z,16.50
2018-08-13T05:03:38.275Z,16.70
2018-08-13T05:08:41.551Z,16.70
2018-08-13T05:13:44.826Z,16.90
2018-08-13T05:18:48.110Z,17.10
2018-08-13T05:23:51.402Z,17.30
2018-08-13T05:28:54.655Z,17.40
2018-08-13T05:33:57.963Z,17.70
2018-08-13T05:39:01.232Z,18.20
2018-08-13T05:44:04.591Z,18.60
2018-08-13T05:49:07.863Z,19.00
2018-08-13T05:54:11.127Z,19.60
2018-08-13T05:59:14.400Z,19.80
2018-08-13T06:04:17.648Z,20.20
2018-08-13T06:09:20.926Z,20.80
2018-08-13T06:14:24.215Z,21.30
2018-08-13T06:19:27.483Z,21.50
2018-08-13T06:24:30.766Z,22.00
2018-08-13T06:29:34.050Z,22.60
2018-08-13T06:34:37.324Z,23.10
2018-08-13T06:39:40.598Z,23.20
2018-08-13T06:44:43.861Z,23.30
2018-08-13T06:49:47.131Z,23.30
2018-08-13T06:54:50.391Z,23.20
2018-08-13T06:59:53.660Z,23.80
2018-08-13T07:04:57.027Z,24.10
2018-08-13T07:10:00.304Z,24.10
2018-08-13T07:15:03.588Z,24.30
2018-08-13T07:20:09.140Z,24.40
2018-08-13T07:25:12.420Z,24.70
2018-08-13T07:30:15.704Z,25.30
2018-08-13T07:35:18.981Z,25.90
2018-08-13T07:40:22.263Z,25.90
2018-08-13T07:45:25.549Z,26.40
2018-08-13T07:50:28.866Z,26.90
2018-08-13T07:55:32.135Z,27.20
2018-08-13T08:00:35.449Z,27.30
2018-08-13T08:05:38.724Z,27.30
2018-08-13T08:10:41.987Z,27.80
2018-08-13T08:15:45.293Z,27.70
2018-08-13T08:20:48.575Z,28.20
2018-08-13T08:25:51.843Z,28.20
2018-08-13T08:30:55.145Z,27.50
2018-08-13T08:35:58.402Z,27.80
2018-08-13T08:41:01.725Z,27.90
2018-08-13T08:46:05.166Z,28.70
2018-08-13T08:51:08.351Z,28.40
2018-08-13T08:56:11.631Z,29.60
2018-08-13T09:01:15.397Z,30.00
2018-08-13T09:06:18.664Z,30.80
2018-08-13T09:11:21.932Z,29.70
2018-08-13T09:16:25.451Z,30.30
2018-08-13T09:21:31.240Z,29.80
2018-08-13T09:26:45.651Z,28.20
2018-08-13T09:32:11.863Z,29.10
2018-08-13T09:37:16.035Z,29.00
2018-08-13T09:42:19.301Z,28.90
2018-08-13T09:47:22.555Z,29.80
2018-08-13T09:52:25.854Z,29.60
2018-08-13T09:57:29.133Z,29.10
2018-08-13T10:02:32.410Z,29.10
2018-08-13T10:07:35.668Z,30.00
2018-08-13T10:12:39.565Z,30.80
2018-08-13T10:17:42.877Z,30.60
2018-08-13T10:22:46.398Z,29.90
2018-08-13T10:27:49.647Z,30.60
2018-08-13T10:32:52.940Z,30.60
2018-08-13T10:37:56.204Z,30.70
2018-08-13T10:42:59.480Z,31.50
2018-08-13T10:48:02.728Z,30.40
2018-08-13T10:53:06.005Z,30.50
2018-08-13T10:58:09.330Z,29.60
2018-08-13T11:03:12.652Z,29.60
2018-08-13T11:08:15.898Z,29.10
2018-08-13T11:13:19.184Z,29.10
2018-08-13T11:18:22.462Z,30.10
2018-08-13T11:23:25.748Z,30.30
2018-08-13T11:28:29.023Z,30.60
2018-08-13T11:33:32.313Z,30.30
2018-08-13T11:38:35.561Z,30.10
2018-08-13T11:43:38.831Z,31.50
2018-08-13T11:48:42.087Z,31.90
2018-08-13T11:53:45.384Z,32.00
2018-08-13T11:58:48.651Z,31.00
2018-08-13T12:03:52.101Z,32.20
2018-08-13T12:08:55.404Z,31.80
2018-08-13T12:13:58.728Z,31.30
2018-08-13T12:19:01.991Z,30.70
2018-08-13T12:24:05.340Z,30.60
2018-08-13T12:29:08.650Z,31.50
2018-08-13T12:34:11.975Z,31.40
2018-08-13T12:39:15.250Z,31.20
2018-08-13T12:44:18.540Z,31.20
2018-08-13T12:49:21.842Z,30.90
2018-08-13T12:54:25.114Z,31.00
2018-08-13T12:59:28.384Z,31.40
2018-08-13T13:04:31.643Z,31.30
2018-08-13T13:09:34.938Z,30.80
2018-08-13T13:14:38.313Z,30.60
2018-08-13T13:19:41.564Z,30.60
2018-08-13T13:24:44.842Z,30.90
2018-08-13T13:29:48.179Z,31.20
2018-08-13T13:34:51.469Z,31.00
2018-08-13T13:39:54.748Z,30.90
2018-08-13T13:44:58.083Z,30.70
2018-08-13T13:50:01.370Z,30.30
2018-08-13T13:55:05.223Z,30.20
2018-08-13T14:00:16.384Z,29.80
2018-08-13T14:05:19.964Z,29.40
2018-08-13T14:10:23.379Z,29.30
2018-08-13T14:15:26.696Z,29.10
2018-08-13T14:20:29.985Z,28.90
2018-08-13T14:25:33.259Z,28.70
2018-08-13T14:30:36.563Z,28.40
2018-08-13T14:35:39.839Z,28.10
2018-08-13T14:40:43.385Z,27.80
2018-08-13T14:45:47.560Z,27.90
2018-08-13T14:50:50.835Z,28.10
2018-08-13T14:55:54.131Z,27.60
2018-08-13T15:00:57.423Z,27.50
2018-08-13T15:06:00.728Z,27.30
2018-08-13T15:11:04.043Z,27.20
2018-08-13T15:16:07.332Z,27.30
2018-08-13T15:21:10.599Z,27.40
2018-08-13T15:26:13.869Z,27.50
2018-08-13T15:31:18.008Z,27.30
2018-08-13T15:36:21.387Z,26.80
2018-08-13T15:41:24.648Z,26.50
2018-08-13T15:46:27.965Z,26.40
2018-08-13T15:51:31.270Z,26.20
2018-08-13T15:56:34.561Z,26.00
2018-08-13T16:01:37.833Z,25.90
2018-08-13T16:06:41.115Z,25.20
2018-08-13T16:16:48.487Z,24.70
2018-08-13T16:21:51.810Z,24.20
2018-08-13T16:37:04.199Z,21.60
2018-08-13T16:42:07.511Z,21.20
2018-08-13T17:02:20.115Z,20.00
2018-08-13T17:07:23.380Z,20.00
2018-08-13T17:12:27.799Z,19.60
2018-08-13T17:17:33.191Z,19.50
2018-08-13T17:22:36.575Z,19.40
2018-08-13T17:27:40.655Z,19.40
2018-08-13T17:32:44.387Z,19.50
2018-08-13T17:37:47.878Z,19.70
2018-08-13T17:42:51.829Z,19.70
2018-08-13T17:47:55.082Z,19.40
2018-08-13T17:52:58.343Z,19.10
2018-08-13T17:58:16.311Z,19.10
2018-08-13T18:03:19.613Z,19.10
2018-08-13T18:08:23.735Z,19.20
2018-08-13T18:13:28.379Z,19.10
2018-08-13T18:18:31.940Z,19.00
2018-08-13T18:23:35.260Z,19.00
2018-08-13T18:28:38.527Z,18.90
2018-08-13T18:33:41.792Z,18.80
2018-08-13T18:38:45.101Z,19.00
2018-08-13T18:43:48.410Z,19.20
2018-08-13T18:48:52.844Z,19.00
2018-08-13T18:53:58.259Z,19.10
2018-08-13T18:59:05.664Z,19.00
2018-08-13T19:04:10.059Z,19.00
2018-08-13T19:09:15.477Z,19.20
2018-08-13T19:14:18.741Z,19.30
2018-08-13T19:19:22.020Z,19.40
2018-08-13T19:24:25.311Z,19.40
2018-08-13T19:29:29.239Z,19.00
2018-08-13T19:34:32.690Z,18.90
2018-08-13T19:39:35.948Z,18.90
2018-08-13T19:44:39.268Z,18.90
2018-08-13T19:49:42.504Z,18.50
2018-08-13T19:54:45.839Z,18.50
2018-08-13T19:59:49.107Z,18.70
2018-08-13T20:04:52.418Z,18.60
2018-08-13T20:09:55.683Z,18.40
2018-08-13T20:14:58.954Z,18.20
2018-08-13T20:20:02.245Z,18.00
2018-08-13T20:25:05.651Z,18.10
2018-08-13T20:35:12.815Z,18.10
2018-08-13T20:40:17.635Z,18.20
2018-08-13T20:45:23.095Z,18.30
2018-08-13T20:50:26.351Z,18.50
2018-08-13T20:55:29.979Z,18.50
2018-08-13T21:00:33.283Z,18.60
2018-08-13T21:05:36.631Z,18.60
2018-08-13T21:10:39.895Z,18.50
2018-08-13T21:15:43.171Z,18.60
2018-08-13T21:20:46.454Z,18.40
2018-08-13T21:25:49.720Z,18.50
2018-08-13T21:30:52.983Z,18.50
2018-08-13T21:35:56.253Z,18.60
2018-08-13T21:40:59.530Z,18.70
2018-08-13T21:46:02.827Z,18.40
2018-08-13T21:51:06.347Z,18.50
2018-08-13T21:56:09.649Z,18.50
2018-08-13T22:01:18.287Z,18.50
2018-08-13T22:06:21.563Z,18.50
2018-08-13T22:11:24.880Z,18.60
2018-08-13T22:16:28.178Z,18.60
2018-08-13T22:21:31.458Z,18.60
2018-08-13T22:26:34.743Z,18.60
2018-08-13T22:31:38.062Z,18.60
2018-08-13T22:36:41.358Z,18.50
2018-08-13T22:41:45.445Z,18.40
2018-08-13T22:46:49.447Z,18.50
2018-08-13T22:51:52.729Z,18.40
2018-08-13T22:56:55.999Z,18.40
2018-08-13T23:01:59.272Z,18.40
2018-08-13T23:07:02.607Z,18.30
2018-08-13T23:12:08.543Z,18.30
2018-08-13T23:17:11.859Z,18.30
2018-08-13T23:22:26.699Z,18.30
2018-08-13T23:27:29.992Z,18.30
2018-08-13T23:32:33.251Z,18.20
2018-08-13T23:37:36.530Z,18.20
2018-08-13T23:42:40.859Z,18.10
2018-08-13T23:47:44.316Z,18.10
2018-08-13T23:52:48.503Z,18.00
2018-08-13T23:57:51.795Z,18.00
